sensor_id;sensor_type;location;lat;lon;timestamp;P1;P4;P2;P0;N10;N4;N25;N1;N05;TS
78557;SPS30;68325;52.124;5.424;2023-05-29T00:00:27;7.27;6.59;5.19;3.31;26.59;26.50;26.13;24.29;18.26;0.84
78557;SPS30;68325;52.124;5.424;2023-05-29T00:02:55;7.79;7.05;5.54;3.51;28.21;28.12;27.71;25.73;19.28;0.82
78557;SPS30;68325;52.124;5.424;2023-05-29T00:05:22;7.21;6.51;5.07;3.15;25.38;25.30;24.91;23.03;17.08;0.84
78557;SPS30;68325;52.124;5.424;2023-05-29T00:07:48;7.74;7.00;5.47;3.44;27.64;27.54;27.14;25.15;18.75;0.83
78557;SPS30;68325;52.124;5.424;2023-05-29T00:10:16;7.55;6.81;5.28;3.26;26.20;26.11;25.70;23.72;17.50;0.85
78557;SPS30;68325;52.124;5.424;2023-05-29T00:12:43;7.98;7.18;5.54;3.37;27.10;27.00;26.57;24.43;17.88;0.87
78557;SPS30;68325;52.124;5.424;2023-05-29T00:15:10;7.77;6.99;5.39;3.27;26.34;26.24;25.82;23.74;17.37;0.87
78557;SPS30;68325;52.124;5.424;2023-05-29T00:17:39;7.73;6.95;5.37;3.26;26.26;26.17;25.74;23.68;17.33;0.85
78557;SPS30;68325;52.124;5.424;2023-05-29T00:20:06;7.61;6.87;5.35;3.33;26.77;26.67;26.27;24.28;18.00;0.84
78557;SPS30;68325;52.124;5.424;2023-05-29T00:22:36;7.53;6.81;5.34;3.37;27.09;27.00;26.61;24.68;18.44;0.82
78557;SPS30;68325;52.124;5.424;2023-05-29T00:25:06;7.29;6.57;5.11;3.17;25.47;25.38;24.99;23.08;17.08;0.82
78557;SPS30;68325;52.124;5.424;2023-05-29T00:27:34;7.43;6.70;5.22;3.25;26.16;26.07;25.67;23.74;17.61;0.82
78557;SPS30;68325;52.124;5.424;2023-05-29T00:30:01;8.33;7.55;5.95;3.80;30.57;30.47;30.04;27.95;21.03;0.80
78557;SPS30;68325;52.124;5.424;2023-05-29T00:32:28;7.61;6.88;5.41;3.43;27.60;27.51;27.11;25.18;18.88;0.82
78557;SPS30;68325;52.124;5.424;2023-05-29T00:34:55;6.94;6.31;5.04;3.30;26.55;26.47;26.13;24.45;18.65;0.80
78557;SPS30;68325;52.124;5.424;2023-05-29T00:37:22;6.74;6.10;4.82;3.08;24.78;24.70;24.35;22.66;17.07;0.81
78557;SPS30;68325;52.124;5.424;2023-05-29T00:39:49;7.06;6.40;5.06;3.25;26.13;26.05;25.69;23.93;18.06;0.81
78557;SPS30;68325;52.124;5.424;2023-05-29T00:42:15;6.44;5.87;4.70;3.12;25.05;24.98;24.67;23.13;17.74;0.80
78557;SPS30;68325;52.124;5.424;2023-05-29T00:44:42;6.45;5.85;4.64;3.00;24.08;24.00;23.68;22.08;16.71;0.81
78557;SPS30;68325;52.124;5.424;2023-05-29T00:47:09;6.64;6.04;4.81;3.14;25.23;25.16;24.83;23.20;17.66;0.78
78557;SPS30;68325;52.124;5.424;2023-05-29T00:49:36;6.00;5.51;4.51;3.12;25.06;25.00;24.73;23.40;18.30;0.73
78557;SPS30;68325;52.124;5.424;2023-05-29T00:52:04;6.13;5.61;4.56;3.10;24.89;24.83;24.54;23.14;17.96;0.75
78557;SPS30;68325;52.124;5.424;2023-05-29T00:54:33;6.60;6.00;4.79;3.15;25.28;25.21;24.88;23.28;17.77;0.80
78557;SPS30;68325;52.124;5.424;2023-05-29T00:57:00;6.34;5.76;4.59;3.00;24.09;24.01;23.70;22.15;16.86;0.79
78557;SPS30;68325;52.124;5.424;2023-05-29T00:59:30;7.58;6.86;5.40;3.43;27.60;27.51;27.12;25.21;18.92;0.82
78557;SPS30;68325;52.124;5.424;2023-05-29T01:01:58;7.43;6.69;5.18;3.18;25.57;25.48;25.07;23.11;17.00;0.85
78557;SPS30;68325;52.124;5.424;2023-05-29T01:04:26;8.03;7.21;5.54;3.33;26.80;26.70;26.26;24.08;17.51;0.87
78557;SPS30;68325;52.124;5.424;2023-05-29T01:06:53;7.98;7.15;5.47;3.24;26.13;26.03;25.58;23.39;16.88;0.86
78557;SPS30;68325;52.124;5.424;2023-05-29T01:09:20;7.93;7.10;5.40;3.18;25.58;25.48;25.03;22.83;16.38;0.87
78557;SPS30;68325;52.124;5.424;2023-05-29T01:12:02;8.28;7.41;5.63;3.29;26.50;26.39;25.92;23.62;16.88;0.89
78557;SPS30;68325;52.124;5.424;2023-05-29T01:23:06;7.15;6.46;5.03;3.14;25.22;25.14;24.76;22.90;16.99;0.85
78557;SPS30;68325;52.124;5.424;2023-05-29T01:28:26;7.02;6.38;5.09;3.34;26.84;26.76;26.41;24.71;18.84;0.80
78557;SPS30;68325;52.124;5.424;2023-05-29T01:30:59;6.66;6.07;4.86;3.21;25.81;25.73;25.41;23.81;18.24;0.79
78557;SPS30;68325;52.124;5.424;2023-05-29T01:33:27;6.02;5.50;4.43;2.97;23.85;23.79;23.50;22.09;17.03;0.79
78557;SPS30;68325;52.124;5.424;2023-05-29T01:35:54;7.17;6.51;5.16;3.34;26.88;26.80;26.44;24.67;18.70;0.81
78557;SPS30;68325;52.124;5.424;2023-05-29T01:38:20;6.03;5.50;4.42;2.95;23.66;23.60;23.31;21.88;16.82;0.78
78557;SPS30;68325;52.124;5.424;2023-05-29T01:40:47;6.30;5.76;4.66;3.16;25.38;25.31;25.02;23.57;18.26;0.76
78557;SPS30;68325;52.124;5.424;2023-05-29T01:43:14;7.42;6.75;5.38;3.51;28.24;28.16;27.79;25.98;19.78;0.78
78557;SPS30;68325;52.124;5.424;2023-05-29T01:45:41;7.13;6.46;5.08;3.23;25.98;25.90;25.53;23.73;17.81;0.80
78557;SPS30;68325;52.124;5.424;2023-05-29T01:48:07;6.39;5.79;4.57;2.93;23.57;23.49;23.16;21.56;16.25;0.80
78557;SPS30;68325;52.124;5.424;2023-05-29T01:50:34;6.82;6.18;4.86;3.10;24.90;24.82;24.47;22.74;17.09;0.81
78557;SPS30;68325;52.124;5.424;2023-05-29T01:53:01;6.71;6.08;4.79;3.06;24.57;24.49;24.15;22.46;16.89;0.80
78557;SPS30;68325;52.124;5.424;2023-05-29T01:55:28;6.56;5.97;4.76;3.12;25.10;25.03;24.71;23.12;17.63;0.79
78557;SPS30;68325;52.124;5.424;2023-05-29T01:57:55;6.26;5.72;4.61;3.10;24.87;24.80;24.50;23.04;17.77;0.76
78557;SPS30;68325;52.124;5.424;2023-05-29T02:00:22;7.14;6.48;5.12;3.29;26.47;26.38;26.02;24.24;18.30;0.81
78557;SPS30;68325;52.124;5.424;2023-05-29T02:02:48;6.99;6.34;5.02;3.23;25.96;25.88;25.53;23.78;17.97;0.82
78557;SPS30;68325;52.124;5.424;2023-05-29T02:05:15;6.23;5.68;4.56;3.03;24.34;24.27;23.97;22.49;17.26;0.78
78557;SPS30;68325;52.124;5.424;2023-05-29T02:07:43;6.63;6.01;4.76;3.07;24.66;24.58;24.24;22.60;17.08;0.80
78557;SPS30;68325;52.124;5.424;2023-05-29T02:10:10;6.96;6.29;4.91;3.07;24.67;24.58;24.21;22.41;16.66;0.83
78557;SPS30;68325;52.124;5.424;2023-05-29T02:12:37;7.14;6.45;5.03;3.14;25.28;25.19;24.82;22.97;17.07;0.83
78557;SPS30;68325;52.124;5.424;2023-05-29T02:15:03;6.60;5.97;4.69;2.96;23.83;23.75;23.41;21.73;16.26;0.82
78557;SPS30;68325;52.124;5.424;2023-05-29T02:17:30;7.09;6.41;5.04;3.19;25.62;25.54;25.17;23.36;17.49;0.83
78557;SPS30;68325;52.124;5.424;2023-05-29T02:19:57;6.58;5.96;4.70;3.00;24.14;24.07;23.73;22.07;16.61;0.83
78557;SPS30;68325;52.124;5.424;2023-05-29T02:22:24;6.54;5.92;4.64;2.92;23.49;23.41;23.07;21.39;15.98;0.82
78557;SPS30;68325;52.124;5.424;2023-05-29T02:24:50;7.29;6.56;5.07;3.09;24.86;24.77;24.37;22.43;16.44;0.86
78557;SPS30;68325;52.124;5.424;2023-05-29T02:27:17;7.47;6.73;5.21;3.20;25.72;25.63;25.22;23.25;17.10;0.87
78557;SPS30;68325;52.124;5.424;2023-05-29T02:29:43;7.63;6.86;5.30;3.23;26.00;25.91;25.49;23.46;17.20;0.86
78557;SPS30;68325;52.124;5.424;2023-05-29T02:32:10;7.34;6.60;5.10;3.10;24.97;24.88;24.48;22.52;16.50;0.86
78557;SPS30;68325;52.124;5.424;2023-05-29T02:34:37;6.81;6.15;4.79;2.98;24.00;23.91;23.55;21.78;16.16;0.84
78557;SPS30;68325;52.124;5.424;2023-05-29T02:37:04;6.69;6.01;4.63;2.80;22.56;22.48;22.11;20.31;14.83;0.86
78557;SPS30;68325;52.124;5.424;2023-05-29T02:39:30;6.89;6.20;4.80;2.94;23.63;23.54;23.17;21.34;15.68;0.84
78557;SPS30;68325;52.124;5.424;2023-05-29T02:41:57;6.47;5.85;4.57;2.86;23.03;22.96;22.61;20.94;15.60;0.81
78557;SPS30;68325;52.124;5.424;2023-05-29T02:44:24;6.83;6.16;4.79;2.96;23.83;23.75;23.38;21.59;15.96;0.82
78557;SPS30;68325;52.124;5.424;2023-05-29T02:46:50;6.62;5.95;4.60;2.81;22.58;22.50;22.14;20.38;14.94;0.83
78557;SPS30;68325;52.124;5.424;2023-05-29T02:49:18;7.08;6.37;4.91;2.98;24.00;23.91;23.53;21.63;15.82;0.83
78557;SPS30;68325;52.124;5.424;2023-05-29T02:51:45;7.03;6.32;4.88;2.96;23.83;23.75;23.36;21.48;15.72;0.84
78557;SPS30;68325;52.124;5.424;2023-05-29T02:54:12;6.72;6.07;4.75;2.97;23.93;23.85;23.49;21.76;16.21;0.81
78557;SPS30;68325;52.124;5.424;2023-05-29T02:56:38;6.09;5.51;4.30;2.70;21.69;21.62;21.30;19.73;14.69;0.83
78557;SPS30;68325;52.124;5.424;2023-05-29T02:59:05;6.43;5.81;4.53;2.83;22.74;22.66;22.32;20.65;15.34;0.85
78557;SPS30;68325;52.124;5.424;2023-05-29T03:01:32;6.21;5.61;4.38;2.75;22.10;22.03;21.70;20.10;14.97;0.83
78557;SPS30;68325;52.124;5.424;2023-05-29T03:03:59;6.63;5.96;4.59;2.78;22.39;22.31;21.94;20.16;14.73;0.85
78557;SPS30;68325;52.124;5.424;2023-05-29T03:06:26;5.97;5.39;4.20;2.61;20.97;20.90;20.58;19.03;14.10;0.83
78557;SPS30;68325;52.124;5.424;2023-05-29T03:08:52;5.97;5.39;4.21;2.62;21.10;21.03;20.71;19.16;14.23;0.82
78557;SPS30;68325;52.124;5.424;2023-05-29T03:11:19;6.25;5.64;4.41;2.76;22.19;22.12;21.79;20.17;15.01;0.82
78557;SPS30;68325;52.124;5.424;2023-05-29T03:13:49;6.96;6.28;4.88;3.03;24.35;24.27;23.89;22.07;16.34;0.83
78557;SPS30;68325;52.124;5.424;2023-05-29T03:16:16;5.89;5.32;4.15;2.59;20.87;20.80;20.49;18.96;14.10;0.83
78557;SPS30;68325;52.124;5.424;2023-05-29T03:18:43;6.52;5.88;4.58;2.84;22.82;22.74;22.40;20.69;15.32;0.83
78557;SPS30;68325;52.124;5.424;2023-05-29T03:21:10;6.55;5.91;4.59;2.84;22.87;22.79;22.44;20.72;15.32;0.84
78557;SPS30;68325;52.124;5.424;2023-05-29T03:23:37;7.06;6.33;4.83;2.86;23.04;22.95;22.55;20.61;14.85;0.87
78557;SPS30;68325;52.124;5.424;2023-05-29T03:26:03;7.44;6.68;5.13;3.07;24.76;24.66;24.25;22.23;16.15;0.86
78557;SPS30;68325;52.124;5.424;2023-05-29T03:28:31;6.26;5.67;4.45;2.83;22.73;22.66;22.33;20.74;15.56;0.83
78557;SPS30;68325;52.124;5.424;2023-05-29T03:30:58;6.35;5.77;4.56;2.94;23.66;23.59;23.26;21.69;16.40;0.81
78557;SPS30;68325;52.124;5.424;2023-05-29T03:33:25;5.85;5.31;4.21;2.73;21.95;21.88;21.59;20.15;15.27;0.80
78557;SPS30;68325;52.124;5.424;2023-05-29T03:35:51;5.93;5.37;4.23;2.69;21.67;21.60;21.29;19.80;14.87;0.82
78557;SPS30;68325;52.124;5.424;2023-05-29T03:38:18;6.47;5.84;4.55;2.83;22.73;22.65;22.31;20.62;15.28;0.84
78557;SPS30;68325;52.124;5.424;2023-05-29T03:40:44;6.81;6.15;4.81;3.00;24.17;24.09;23.73;21.97;16.34;0.82
78557;SPS30;68325;52.124;5.424;2023-05-29T03:43:11;6.11;5.53;4.37;2.80;22.49;22.41;22.10;20.57;15.50;0.78
78557;SPS30;68325;52.124;5.424;2023-05-29T03:45:37;6.03;5.48;4.37;2.86;22.95;22.88;22.58;21.12;16.08;0.79
78557;SPS30;68325;52.124;5.424;2023-05-29T03:48:04;6.05;5.48;4.32;2.77;22.25;22.18;21.87;20.35;15.33;0.80
78557;SPS30;68325;52.124;5.424;2023-05-29T03:50:31;6.75;6.10;4.78;3.00;24.13;24.05;23.70;21.96;16.38;0.81
78557;SPS30;68325;52.124;5.424;2023-05-29T03:52:57;6.18;5.58;4.35;2.70;21.75;21.67;21.35;19.74;14.64;0.83
78557;SPS30;68325;52.124;5.424;2023-05-29T03:55:25;6.31;5.70;4.44;2.77;22.25;22.17;21.84;20.20;14.99;0.83
78557;SPS30;68325;52.124;5.424;2023-05-29T03:57:53;6.76;6.08;4.69;2.85;22.95;22.87;22.50;20.69;15.15;0.86
78557;SPS30;68325;52.124;5.424;2023-05-29T04:00:20;6.71;6.06;4.73;2.95;23.74;23.66;23.31;21.57;16.02;0.82
78557;SPS30;68325;52.124;5.424;2023-05-29T04:02:47;6.35;5.74;4.50;2.83;22.79;22.71;22.38;20.75;15.49;0.82
78557;SPS30;68325;52.124;5.424;2023-05-29T04:05:13;6.21;5.62;4.40;2.77;22.26;22.18;21.86;20.26;15.12;0.82
78557;SPS30;68325;52.124;5.424;2023-05-29T04:07:41;6.31;5.70;4.45;2.79;22.45;22.37;22.04;20.41;15.20;0.83
78557;SPS30;68325;52.124;5.424;2023-05-29T04:10:08;6.81;6.14;4.78;2.97;23.92;23.84;23.48;21.70;16.09;0.84
78557;SPS30;68325;52.124;5.424;2023-05-29T04:12:35;5.85;5.27;4.08;2.50;20.15;20.08;19.76;18.21;13.40;0.84
78557;SPS30;68325;52.124;5.424;2023-05-29T04:15:03;7.11;6.39;4.92;2.97;23.91;23.82;23.43;21.51;15.68;0.85
78557;SPS30;68325;52.124;5.424;2023-05-29T04:17:30;7.07;6.36;4.92;3.00;24.17;24.08;23.69;21.81;16.01;0.85
78557;SPS30;68325;52.124;5.424;2023-05-29T04:19:57;6.64;5.97;4.60;2.78;22.39;22.30;21.94;20.15;14.71;0.85
78557;SPS30;68325;52.124;5.424;2023-05-29T04:22:24;6.84;6.17;4.81;3.00;24.13;24.05;23.68;21.91;16.27;0.82
78557;SPS30;68325;52.124;5.424;2023-05-29T04:24:50;6.19;5.58;4.34;2.68;21.57;21.49;21.16;19.53;14.43;0.83
78557;SPS30;68325;52.124;5.424;2023-05-29T04:27:17;6.54;5.92;4.64;2.92;23.49;23.41;23.07;21.40;15.98;0.82
78557;SPS30;68325;52.124;5.424;2023-05-29T04:29:44;6.42;5.79;4.49;2.77;22.31;22.23;21.89;20.20;14.91;0.83
78557;SPS30;68325;52.124;5.424;2023-05-29T04:32:10;7.01;6.29;4.83;2.89;23.23;23.14;22.75;20.84;15.11;0.84
78557;SPS30;68325;52.124;5.424;2023-05-29T04:34:37;7.20;6.46;4.95;2.96;23.83;23.74;23.34;21.38;15.49;0.83
78557;SPS30;68325;52.124;5.424;2023-05-29T04:37:05;6.69;6.01;4.61;2.77;22.29;22.21;21.84;20.02;14.54;0.82
78557;SPS30;68325;52.124;5.424;2023-05-29T04:39:32;7.35;6.59;5.05;3.01;24.23;24.14;23.73;21.72;15.72;0.83
78557;SPS30;68325;52.124;5.424;2023-05-29T04:41:59;6.86;6.19;4.81;2.97;23.92;23.84;23.47;21.67;16.02;0.81
78557;SPS30;68325;52.124;5.424;2023-05-29T04:44:27;6.66;6.01;4.69;2.93;23.54;23.46;23.11;21.38;15.89;0.81
78557;SPS30;68325;52.124;5.424;2023-05-29T04:46:55;6.36;5.72;4.41;2.67;21.52;21.44;21.09;19.38;14.17;0.84
78557;SPS30;68325;52.124;5.424;2023-05-29T04:49:23;7.42;6.65;5.07;3.00;24.15;24.06;23.64;21.59;15.54;0.85
78557;SPS30;68325;52.124;5.424;2023-05-29T04:51:50;6.38;5.75;4.46;2.75;22.12;22.04;21.69;20.01;14.76;0.83
78557;SPS30;68325;52.124;5.424;2023-05-29T04:54:18;6.72;6.06;4.72;2.93;23.57;23.49;23.13;21.38;15.84;0.81
78557;SPS30;68325;52.124;5.424;2023-05-29T04:56:46;5.84;5.28;4.13;2.59;20.85;20.78;20.47;18.97;14.14;0.81
78557;SPS30;68325;52.124;5.424;2023-05-29T04:59:12;6.49;5.89;4.64;2.97;23.87;23.80;23.47;21.83;16.44;0.80
78557;SPS30;68325;52.124;5.424;2023-05-29T05:01:39;6.36;5.76;4.52;2.86;22.99;22.91;22.58;20.96;15.69;0.81
78557;SPS30;68325;52.124;5.424;2023-05-29T05:04:09;6.56;5.93;4.66;2.94;23.67;23.59;23.25;21.58;16.15;0.80
78557;SPS30;68325;52.124;5.424;2023-05-29T05:06:36;5.96;5.42;4.31;2.81;22.57;22.50;22.20;20.74;15.77;0.77
78557;SPS30;68325;52.124;5.424;2023-05-29T05:09:04;6.14;5.54;4.31;2.68;21.55;21.48;21.15;19.55;14.49;0.82
78557;SPS30;68325;52.124;5.424;2023-05-29T05:11:30;6.69;6.02;4.66;2.86;22.99;22.91;22.55;20.77;15.27;0.85
78557;SPS30;68325;52.124;5.424;2023-05-29T05:13:57;6.81;6.15;4.78;2.96;23.85;23.77;23.40;21.62;16.01;0.85
78557;SPS30;68325;52.124;5.424;2023-05-29T05:16:24;6.85;6.20;4.87;3.09;24.82;24.74;24.38;22.64;16.96;0.82
78557;SPS30;68325;52.124;5.424;2023-05-29T05:18:51;6.85;6.18;4.83;3.02;24.31;24.23;23.86;22.09;16.44;0.82
78557;SPS30;68325;52.124;5.424;2023-05-29T05:21:17;6.38;5.79;4.57;2.93;23.56;23.49;23.16;21.56;16.26;0.80
78557;SPS30;68325;52.124;5.424;2023-05-29T05:23:45;5.94;5.41;4.34;2.87;23.10;23.03;22.74;21.33;16.35;0.78
78557;SPS30;68325;52.124;5.424;2023-05-29T05:26:24;6.12;5.55;4.40;2.84;22.79;22.72;22.41;20.89;15.80;0.80
78557;SPS30;68325;52.124;5.424;2023-05-29T05:28:52;7.59;6.84;5.33;3.30;26.59;26.49;26.09;24.11;17.85;0.82
78557;SPS30;68325;52.124;5.424;2023-05-29T05:31:19;7.42;6.69;5.20;3.22;25.88;25.79;25.39;23.45;17.33;0.83
78557;SPS30;68325;52.124;5.424;2023-05-29T05:33:46;6.78;6.15;4.86;3.13;25.16;25.08;24.74;23.05;17.41;0.80
78557;SPS30;68325;52.124;5.424;2023-05-29T05:36:12;6.45;5.85;4.62;2.96;23.78;23.70;23.37;21.75;16.39;0.81
78557;SPS30;68325;52.124;5.424;2023-05-29T05:38:40;6.47;5.88;4.66;3.02;24.30;24.23;23.90;22.30;16.91;0.81
78557;SPS30;68325;52.124;5.424;2023-05-29T05:41:06;7.27;6.59;5.20;3.33;26.81;26.72;26.35;24.53;18.49;0.80
78557;SPS30;68325;52.124;5.424;2023-05-29T05:43:33;6.44;5.87;4.69;3.10;24.88;24.81;24.49;22.94;17.55;0.76
78557;SPS30;68325;52.124;5.424;2023-05-29T05:46:00;6.19;5.62;4.46;2.90;23.28;23.21;22.90;21.38;16.22;0.77
78557;SPS30;68325;52.124;5.424;2023-05-29T05:48:26;6.00;5.43;4.26;2.69;21.66;21.59;21.28;19.75;14.78;0.78
78557;SPS30;68325;52.124;5.424;2023-05-29T05:50:53;6.07;5.46;4.23;2.60;20.89;20.82;20.49;18.88;13.90;0.82
78557;SPS30;68325;52.124;5.424;2023-05-29T05:53:20;6.86;6.19;4.80;2.96;23.82;23.73;23.36;21.56;15.91;0.82
78557;SPS30;68325;52.124;5.424;2023-05-29T05:55:47;6.84;6.18;4.82;3.01;24.20;24.11;23.75;21.98;16.33;0.81
78557;SPS30;68325;52.124;5.424;2023-05-29T05:58:14;6.94;6.26;4.86;3.00;24.14;24.06;23.69;21.86;16.15;0.81
78557;SPS30;68325;52.124;5.424;2023-05-29T06:00:41;6.20;5.58;4.31;2.63;21.19;21.12;20.78;19.13;14.04;0.83
78557;SPS30;68325;52.124;5.424;2023-05-29T06:03:08;6.44;5.80;4.49;2.75;22.15;22.07;21.72;20.01;14.72;0.82
78557;SPS30;68325;52.124;5.424;2023-05-29T06:05:36;6.59;5.95;4.64;2.89;23.22;23.14;22.79;21.07;15.64;0.82
78557;SPS30;68325;52.124;5.424;2023-05-29T06:08:05;6.70;6.03;4.65;2.82;22.69;22.61;22.24;20.44;14.95;0.83
78557;SPS30;68325;52.124;5.424;2023-05-29T06:10:31;6.29;5.67;4.40;2.72;21.87;21.79;21.45;19.80;14.62;0.81
78557;SPS30;68325;52.124;5.424;2023-05-29T06:12:58;6.03;5.46;4.29;2.72;21.89;21.82;21.50;19.98;14.98;0.80
78557;SPS30;68325;52.124;5.424;2023-05-29T06:15:25;5.94;5.36;4.16;2.56;20.64;20.56;20.25;18.68;13.79;0.82
78557;SPS30;68325;52.124;5.424;2023-05-29T06:17:51;5.97;5.39;4.20;2.61;20.97;20.90;20.58;19.02;14.10;0.81
78557;SPS30;68325;52.124;5.424;2023-05-29T06:20:18;6.32;5.68;4.38;2.66;21.38;21.30;20.96;19.26;14.08;0.83
78557;SPS30;68325;52.124;5.424;2023-05-29T06:22:45;6.58;5.91;4.54;2.73;21.98;21.90;21.54;19.76;14.38;0.83
78557;SPS30;68325;52.124;5.424;2023-05-29T06:25:16;6.11;5.52;4.32;2.70;21.73;21.66;21.34;19.76;14.70;0.80
78557;SPS30;68325;52.124;5.424;2023-05-29T06:27:46;5.59;5.08;4.05;2.64;21.23;21.17;20.89;19.53;14.86;0.77
78557;SPS30;68325;52.124;5.424;2023-05-29T06:30:13;5.13;4.67;3.73;2.45;19.72;19.66;19.41;18.17;13.88;0.76
78557;SPS30;68325;52.124;5.424;2023-05-29T06:32:40;5.99;5.43;4.29;2.74;22.07;22.00;21.69;20.19;15.22;0.78
78557;SPS30;68325;52.124;5.424;2023-05-29T06:35:06;5.54;5.00;3.90;2.43;19.56;19.50;19.20;17.76;13.19;0.79
78557;SPS30;68325;52.124;5.424;2023-05-29T06:37:33;6.54;5.89;4.56;2.79;22.48;22.40;22.05;20.31;14.93;0.81
78557;SPS30;68325;52.124;5.424;2023-05-29T06:40:00;5.38;4.85;3.78;2.34;18.85;18.78;18.50;17.09;12.66;0.81
78557;SPS30;68325;52.124;5.424;2023-05-29T06:42:26;5.63;5.08;3.96;2.47;19.85;19.79;19.49;18.02;13.37;0.81
78557;SPS30;68325;52.124;5.424;2023-05-29T06:44:53;5.56;5.03;3.96;2.52;20.29;20.22;19.94;18.53;13.92;0.80
78557;SPS30;68325;52.124;5.424;2023-05-29T06:47:20;5.28;4.80;3.81;2.48;19.95;19.88;19.62;18.33;13.92;0.79
78557;SPS30;68325;52.124;5.424;2023-05-29T06:49:46;5.24;4.78;3.83;2.55;20.47;20.41;20.16;18.91;14.51;0.79
78557;SPS30;68325;52.124;5.424;2023-05-29T06:52:13;5.06;4.63;3.75;2.53;20.34;20.28;20.04;18.87;14.61;0.78
78557;SPS30;68325;52.124;5.424;2023-05-29T06:54:39;5.12;4.66;3.73;2.46;19.74;19.69;19.44;18.21;13.92;0.78
78557;SPS30;68325;52.124;5.424;2023-05-29T06:57:06;4.98;4.56;3.68;2.49;19.99;19.93;19.70;18.55;14.35;0.74
78557;SPS30;68325;52.124;5.424;2023-05-29T06:59:36;4.92;4.51;3.67;2.51;20.16;20.11;19.88;18.77;14.61;0.75
78557;SPS30;68325;52.124;5.424;2023-05-29T07:02:04;4.85;4.45;3.64;2.51;20.14;20.09;19.87;18.78;14.68;0.74
78557;SPS30;68325;52.124;5.424;2023-05-29T07:04:31;5.05;4.64;3.79;2.62;21.03;20.97;20.75;19.62;15.34;0.75
78557;SPS30;68325;52.124;5.424;2023-05-29T07:06:58;5.52;5.04;4.07;2.73;21.95;21.89;21.63;20.34;15.70;0.77
78557;SPS30;68325;52.124;5.424;2023-05-29T07:09:24;5.31;4.85;3.90;2.62;21.02;20.96;20.71;19.46;15.00;0.78
78557;SPS30;68325;52.124;5.424;2023-05-29T07:11:51;5.60;5.11;4.11;2.74;22.03;21.97;21.70;20.38;15.68;0.78
78557;SPS30;68325;52.124;5.424;2023-05-29T07:14:18;5.41;4.92;3.93;2.58;20.74;20.68;20.41;19.10;14.58;0.78
78557;SPS30;68325;52.124;5.424;2023-05-29T07:16:45;5.16;4.73;3.84;2.63;21.10;21.05;20.81;19.64;15.28;0.74
78557;SPS30;68325;52.124;5.424;2023-05-29T07:19:11;5.38;4.90;3.93;2.61;20.94;20.88;20.62;19.33;14.82;0.77
78557;SPS30;68325;52.124;5.424;2023-05-29T07:21:47;6.17;5.60;4.43;2.85;22.94;22.87;22.56;21.02;15.88;0.78
78557;SPS30;68325;52.124;5.424;2023-05-29T07:24:14;5.99;5.47;4.41;2.97;23.83;23.76;23.48;22.08;17.04;0.74
78557;SPS30;68325;52.124;5.424;2023-05-29T07:26:41;5.91;5.41;4.38;2.98;23.91;23.84;23.57;22.21;17.23;0.72
78557;SPS30;68325;52.124;5.424;2023-05-29T07:29:07;5.29;4.86;4.00;2.79;22.43;22.37;22.14;20.99;16.49;0.69
78557;SPS30;68325;52.124;5.424;2023-05-29T07:31:34;5.43;5.03;4.19;3.01;24.18;24.13;23.90;22.78;18.12;0.67
78557;SPS30;68325;52.124;5.424;2023-05-29T07:34:02;4.53;4.23;3.63;2.74;21.93;21.90;21.73;20.90;16.95;0.66
78557;SPS30;68325;52.124;5.424;2023-05-29T07:36:29;5.10;4.76;4.06;3.05;24.43;24.38;24.19;23.24;18.80;0.67
78557;SPS30;68325;52.124;5.424;2023-05-29T07:38:57;5.08;4.73;4.00;2.95;23.63;23.58;23.39;22.40;18.00;0.68
78557;SPS30;68325;52.124;5.424;2023-05-29T07:41:26;4.83;4.47;3.73;2.69;21.59;21.54;21.35;20.36;16.21;0.72
78557;SPS30;68325;52.124;5.424;2023-05-29T07:43:53;4.74;4.41;3.74;2.77;22.22;22.18;22.00;21.09;16.99;0.69
78557;SPS30;68325;52.124;5.424;2023-05-29T07:46:22;4.37;4.09;3.51;2.65;21.27;21.24;21.08;20.28;16.46;0.67
78557;SPS30;68325;52.124;5.424;2023-05-29T07:48:48;4.77;4.49;3.91;3.04;24.33;24.29;24.13;23.32;19.12;0.67
78557;SPS30;68325;52.124;5.424;2023-05-29T07:51:15;4.35;4.11;3.61;2.85;22.80;22.77;22.64;21.94;18.08;0.66
78557;SPS30;68325;52.124;5.424;2023-05-29T07:53:43;4.38;4.10;3.54;2.71;21.72;21.69;21.54;20.76;16.93;0.68
78557;SPS30;68325;52.124;5.424;2023-05-29T07:56:11;4.72;4.39;3.73;2.76;22.16;22.11;21.93;21.03;16.94;0.70
78557;SPS30;68325;52.124;5.424;2023-05-29T07:58:37;4.91;4.57;3.89;2.90;23.24;23.20;23.01;22.08;17.82;0.70
78557;SPS30;68325;52.124;5.424;2023-05-29T08:01:07;4.86;4.52;3.81;2.79;22.39;22.34;22.15;21.19;16.99;0.72
78557;SPS30;68325;52.124;5.424;2023-05-29T08:03:34;5.04;4.68;3.96;2.92;23.39;23.34;23.15;22.17;17.81;0.70
78557;SPS30;68325;52.124;5.424;2023-05-29T08:06:00;4.52;4.21;3.60;2.70;21.60;21.56;21.40;20.55;16.63;0.66
78557;SPS30;68325;52.124;5.424;2023-05-29T08:08:27;4.70;4.37;3.71;2.75;22.05;22.01;21.83;20.92;16.85;0.68
78557;SPS30;68325;52.124;5.424;2023-05-29T08:10:54;4.84;4.50;3.82;2.82;22.64;22.59;22.41;21.47;17.28;0.71
78557;SPS30;68325;52.124;5.424;2023-05-29T08:13:21;4.98;4.60;3.82;2.73;21.92;21.87;21.66;20.62;16.36;0.72
78557;SPS30;68325;52.124;5.424;2023-05-29T08:15:48;4.78;4.43;3.73;2.72;21.83;21.79;21.60;20.65;16.53;0.70
78557;SPS30;68325;52.124;5.424;2023-05-29T08:18:15;4.50;4.18;3.51;2.56;20.49;20.45;20.27;19.37;15.49;0.71
78557;SPS30;68325;52.124;5.424;2023-05-29T08:20:42;4.48;4.18;3.56;2.67;21.36;21.33;21.16;20.31;16.42;0.70
78557;SPS30;68325;52.124;5.424;2023-05-29T08:23:09;4.30;4.02;3.46;2.63;21.09;21.06;20.91;20.13;16.38;0.69
78557;SPS30;68325;52.124;5.424;2023-05-29T08:25:36;4.83;4.50;3.84;2.88;23.05;23.01;22.83;21.93;17.73;0.69
78557;SPS30;68325;52.124;5.424;2023-05-29T08:28:02;4.27;3.99;3.42;2.58;20.71;20.67;20.52;19.73;16.01;0.70
78557;SPS30;68325;52.124;5.424;2023-05-29T08:30:29;4.33;4.04;3.44;2.57;20.63;20.59;20.43;19.62;15.85;0.70
78557;SPS30;68325;52.124;5.424;2023-05-29T08:32:56;4.60;4.26;3.57;2.59;20.74;20.70;20.51;19.58;15.62;0.72
78557;SPS30;68325;52.124;5.424;2023-05-29T08:35:23;4.46;4.13;3.44;2.47;19.85;19.80;19.62;18.70;14.87;0.73
78557;SPS30;68325;52.124;5.424;2023-05-29T08:37:49;4.78;4.43;3.70;2.66;21.33;21.29;21.09;20.11;16.00;0.74
78557;SPS30;68325;52.124;5.424;2023-05-29T08:40:16;4.65;4.31;3.61;2.62;21.01;20.96;20.78;19.83;15.83;0.76
78557;SPS30;68325;52.124;5.424;2023-05-29T08:42:47;5.01;4.63;3.86;2.76;22.16;22.11;21.91;20.87;16.57;0.75
78557;SPS30;68325;52.124;5.424;2023-05-29T08:45:14;4.67;4.29;3.51;2.44;19.58;19.53;19.32;18.29;14.33;0.77
78557;SPS30;68325;52.124;5.424;2023-05-29T08:47:41;4.61;4.22;3.45;2.37;19.01;18.96;18.75;17.72;13.82;0.78
78557;SPS30;68325;52.124;5.424;2023-05-29T08:50:11;4.89;4.48;3.65;2.50;20.03;19.98;19.76;18.65;14.52;0.76
78557;SPS30;68325;52.124;5.424;2023-05-29T08:52:41;4.63;4.27;3.52;2.49;19.96;19.91;19.71;18.72;14.78;0.73
78557;SPS30;68325;52.124;5.424;2023-05-29T08:55:08;4.40;4.09;3.46;2.55;20.45;20.41;20.24;19.38;15.57;0.70
78557;SPS30;68325;52.124;5.424;2023-05-29T08:57:35;4.55;4.21;3.52;2.55;20.43;20.39;20.20;19.27;15.36;0.73
78557;SPS30;68325;52.124;5.424;2023-05-29T09:00:05;4.64;4.30;3.60;2.61;20.89;20.85;20.66;19.72;15.73;0.73
78557;SPS30;68325;52.124;5.424;2023-05-29T09:02:39;4.18;3.88;3.28;2.41;19.32;19.28;19.12;18.30;14.68;0.72
78557;SPS30;68325;52.124;5.424;2023-05-29T09:05:06;4.73;4.38;3.66;2.64;21.19;21.14;20.95;19.98;15.91;0.73
78557;SPS30;68325;52.124;5.424;2023-05-29T09:07:33;4.61;4.26;3.53;2.51;20.16;20.12;19.92;18.95;15.01;0.75
78557;SPS30;68325;52.124;5.424;2023-05-29T09:10:00;5.14;4.73;3.90;2.73;21.91;21.86;21.63;20.51;16.14;0.75
78557;SPS30;68325;52.124;5.424;2023-05-29T09:12:27;4.84;4.47;3.71;2.65;21.23;21.18;20.98;19.96;15.81;0.74
78557;SPS30;68325;52.124;5.424;2023-05-29T09:14:54;4.69;4.33;3.60;2.56;20.57;20.52;20.32;19.34;15.33;0.75
78557;SPS30;68325;52.124;5.424;2023-05-29T09:17:20;4.95;4.57;3.78;2.68;21.54;21.49;21.28;20.23;16.00;0.75
78557;SPS30;68325;52.124;5.424;2023-05-29T09:19:47;4.30;4.00;3.38;2.49;19.95;19.91;19.74;18.90;15.18;0.72
78557;SPS30;68325;52.124;5.424;2023-05-29T09:22:15;4.75;4.42;3.76;2.81;22.49;22.44;22.26;21.36;17.24;0.72